Terminal Aerodrome Forecast
Issued by NWS

Home | Current Version | Previous Version | Text Only | Print | Product List | Glossary On
Versions: 1 2 3 4 5 6 7 8 9 10 11 12 13 14
000
FTUS45 KTFX 291127
TAFHVR
TAF
KHVR 291127Z 2912/3012 23005KT P6SM SKC
     FM291800 25012G18KT P6SM SCT100 BKN150
     FM300200 22007KT P6SM BKN070 BKN150=

USA.gov is the U.S. government's official web portal to all federal, state and local government web resources and services.